createdAt,value
2019-05-13T00:02:23.970Z,73.80
2019-05-13T00:04:54.514Z,70.00
2019-05-13T00:07:24.942Z,74.93
2019-05-13T00:09:55.330Z,76.47
2019-05-13T00:12:27.375Z,81.20
2019-05-13T00:14:57.763Z,78.83
2019-05-13T00:17:29.159Z,78.37
2019-05-13T00:20:04.007Z,83.97
2019-05-13T00:22:34.772Z,66.03
2019-05-13T00:25:08.132Z,70.30
2019-05-13T00:27:38.570Z,71.87
2019-05-13T00:30:09.466Z,59.43
2019-05-13T00:32:40.171Z,50.93
2019-05-13T00:35:10.734Z,55.03
2019-05-13T00:37:41.167Z,53.37
2019-05-13T00:40:14.326Z,56.43
2019-05-13T00:42:45.060Z,54.20
2019-05-13T00:45:15.583Z,50.13
2019-05-13T00:47:49.061Z,52.27
2019-05-13T00:50:24.039Z,47.37
2019-05-13T00:52:54.245Z,45.03
2019-05-13T00:55:24.639Z,51.53
2019-05-13T00:57:55.066Z,44.40
2019-05-13T01:00:25.522Z,34.00
2019-05-13T01:02:57.532Z,37.33
2019-05-13T01:05:33.875Z,44.17
2019-05-13T01:08:04.622Z,45.90
2019-05-13T01:10:35.098Z,43.60
2019-05-13T01:13:06.175Z,44.57
2019-05-13T01:15:45.591Z,43.03
2019-05-13T01:18:17.739Z,36.53
2019-05-13T01:20:48.120Z,45.47
2019-05-13T01:23:18.546Z,38.20
2019-05-13T01:25:48.940Z,39.07
2019-05-13T01:28:19.380Z,46.77
2019-05-13T01:30:49.767Z,49.00
2019-05-13T01:33:20.197Z,60.37
2019-05-13T01:35:50.619Z,66.63
2019-05-13T01:38:21.052Z,68.20
2019-05-13T01:40:53.741Z,69.57
2019-05-13T01:43:24.495Z,76.07
2019-05-13T01:45:55.164Z,68.17
2019-05-13T01:48:25.546Z,71.80
2019-05-13T01:50:56.045Z,69.10
2019-05-13T01:53:26.446Z,70.07
2019-05-13T01:55:56.863Z,69.47
2019-05-13T01:58:27.247Z,72.40
2019-05-13T02:00:57.672Z,69.47
2019-05-13T02:03:28.058Z,62.77
2019-05-13T02:05:58.486Z,42.97
2019-05-13T02:08:28.914Z,38.80
2019-05-13T02:10:59.415Z,58.27
2019-05-13T02:13:29.802Z,46.87
2019-05-13T02:16:00.223Z,47.10
2019-05-13T02:18:30.694Z,36.73
2019-05-13T02:21:04.877Z,44.50
2019-05-13T02:23:34.019Z,36.00
2019-05-13T02:26:04.876Z,30.13
2019-05-13T02:28:35.270Z,25.67
2019-05-13T02:31:12.456Z,31.90
2019-05-13T02:34:07.256Z,30.97
2019-05-13T02:36:37.773Z,23.60
2019-05-13T02:39:08.809Z,27.17
2019-05-13T02:41:39.303Z,28.77
2019-05-13T02:44:12.289Z,20.23
2019-05-13T02:46:44.347Z,26.90
2019-05-13T02:49:13.967Z,19.53
2019-05-13T02:51:44.404Z,22.30
2019-05-13T02:54:14.797Z,24.33
2019-05-13T02:56:45.220Z,23.50
2019-05-13T02:59:15.608Z,22.03
2019-05-13T03:01:46.035Z,24.63
2019-05-13T03:04:17.559Z,28.47
2019-05-13T03:06:47.988Z,24.00
2019-05-13T03:09:18.377Z,22.33
2019-05-13T03:11:48.791Z,31.53
2019-05-13T03:14:19.249Z,25.30
2019-05-13T03:16:52.616Z,36.37
2019-05-13T03:19:23.187Z,24.30
2019-05-13T03:21:53.612Z,26.93
2019-05-13T03:24:24.058Z,22.17
2019-05-13T03:26:54.622Z,21.70
2019-05-13T03:29:25.082Z,29.93
2019-05-13T03:31:56.816Z,19.93
2019-05-13T03:34:27.769Z,23.93
2019-05-13T03:36:59.181Z,27.20
2019-05-13T03:39:33.157Z,25.73
2019-05-13T03:42:04.618Z,39.30
2019-05-13T03:44:35.635Z,31.53
2019-05-13T03:47:06.063Z,29.20
2019-05-13T03:49:36.887Z,38.50
2019-05-13T03:52:07.316Z,38.73
2019-05-13T03:54:37.935Z,34.90
2019-05-13T03:57:12.398Z,39.03
2019-05-13T03:59:43.688Z,34.83
2019-05-13T04:02:13.391Z,37.57
2019-05-13T04:04:43.848Z,27.73
2019-05-13T04:07:14.413Z,30.20
2019-05-13T04:09:44.970Z,25.67
2019-05-13T04:12:15.541Z,21.87
2019-05-13T04:14:46.736Z,18.57
2019-05-13T04:17:17.160Z,20.10
2019-05-13T04:19:47.612Z,23.07
2019-05-13T04:22:18.180Z,19.13
2019-05-13T04:24:52.760Z,17.33
2019-05-13T04:27:23.267Z,19.27
2019-05-13T04:29:54.135Z,19.23
2019-05-13T04:32:28.736Z,22.13
2019-05-13T04:34:57.462Z,19.60
2019-05-13T04:37:27.963Z,14.53
2019-05-13T04:39:58.459Z,15.40
2019-05-13T04:42:28.877Z,16.87
2019-05-13T04:45:02.648Z,13.33
2019-05-13T04:47:33.183Z,9.63
2019-05-13T04:50:04.095Z,9.93
2019-05-13T04:52:34.752Z,9.20
2019-05-13T04:55:06.748Z,13.50
2019-05-13T04:57:37.311Z,11.30
2019-05-13T05:00:07.827Z,9.20
2019-05-13T05:03:08.480Z,10.30
2019-05-13T05:05:52.945Z,20.10
2019-05-13T05:09:05.343Z,14.63
2019-05-13T05:12:02.541Z,10.07
2019-05-13T05:15:07.199Z,12.93
2019-05-13T05:18:16.317Z,15.50
2019-05-13T05:21:03.050Z,13.27
2019-05-13T05:23:56.002Z,11.57
2019-05-13T05:27:14.586Z,8.70
2019-05-13T05:30:21.696Z,11.53
2019-05-13T05:33:29.215Z,15.60
2019-05-13T05:36:33.947Z,25.60
2019-05-13T05:39:17.865Z,14.87
2019-05-13T05:41:51.416Z,14.27
2019-05-13T05:44:25.986Z,21.07
2019-05-13T05:47:02.567Z,9.83
2019-05-13T05:49:32.957Z,14.67
2019-05-13T05:52:06.377Z,14.17
2019-05-13T05:54:39.307Z,12.97
2019-05-13T05:57:12.176Z,4.93
2019-05-13T05:59:43.005Z,8.80
2019-05-13T06:02:13.531Z,10.00
2019-05-13T06:04:52.007Z,10.23
2019-05-13T06:07:24.011Z,5.00
2019-05-13T06:09:54.689Z,8.13
2019-05-13T06:12:25.483Z,7.87
2019-05-13T06:14:56.112Z,9.60
2019-05-13T06:17:26.614Z,8.70
2019-05-13T06:19:57.007Z,9.60
2019-05-13T06:22:27.571Z,10.40
2019-05-13T06:24:58.031Z,8.07
2019-05-13T06:27:28.456Z,6.27
2019-05-13T06:30:01.958Z,7.53
2019-05-13T06:32:31.560Z,8.73
2019-05-13T06:35:02.614Z,8.87
2019-05-13T06:37:34.743Z,5.53
2019-05-13T06:40:07.024Z,4.23
2019-05-13T06:42:37.956Z,7.20
2019-05-13T06:45:08.837Z,6.37
2019-05-13T06:47:41.183Z,5.67
2019-05-13T06:50:12.481Z,5.93
2019-05-13T06:52:42.904Z,4.90
2019-05-13T06:55:13.663Z,3.43
2019-05-13T06:57:44.047Z,3.77
2019-05-13T07:00:15.397Z,4.33
2019-05-13T07:02:45.890Z,5.00
2019-05-13T07:05:16.528Z,4.00
2019-05-13T07:07:46.907Z,6.63
2019-05-13T07:10:17.355Z,3.57
2019-05-13T07:12:47.741Z,6.10
2019-05-13T07:15:18.314Z,3.47
2019-05-13T07:17:48.698Z,4.67
2019-05-13T07:20:22.341Z,6.80
2019-05-13T07:22:53.238Z,4.97
2019-05-13T07:25:23.496Z,3.20
2019-05-13T07:27:53.875Z,3.13
2019-05-13T07:30:42.499Z,3.73
2019-05-13T07:33:12.951Z,5.33
2019-05-13T07:35:45.802Z,5.53
2019-05-13T07:38:18.683Z,4.57
2019-05-13T07:40:53.804Z,4.80
2019-05-13T07:43:24.425Z,5.03
2019-05-13T07:45:54.855Z,6.90
2019-05-13T07:48:27.917Z,3.17
2019-05-13T07:51:00.724Z,2.07
2019-05-13T07:53:32.060Z,2.70
2019-05-13T07:56:02.304Z,4.97
2019-05-13T07:58:37.076Z,2.70
2019-05-13T08:01:04.863Z,3.23
2019-05-13T08:03:35.295Z,3.50
2019-05-13T08:06:06.065Z,7.80
2019-05-13T08:08:36.472Z,2.30
2019-05-13T08:11:06.909Z,1.77
2019-05-13T08:13:37.946Z,3.27
2019-05-13T08:16:08.462Z,4.20
2019-05-13T08:18:38.915Z,3.50
2019-05-13T08:21:11.752Z,1.57
2019-05-13T08:23:41.825Z,2.13
2019-05-13T08:26:12.563Z,2.83
2019-05-13T08:28:57.318Z,2.97
2019-05-13T08:31:15.216Z,3.80
2019-05-13T08:33:45.600Z,3.27
2019-05-13T08:36:16.024Z,1.93
2019-05-13T08:38:46.438Z,4.33
2019-05-13T08:41:19.358Z,2.80
2019-05-13T08:43:52.200Z,1.43
2019-05-13T08:46:22.288Z,3.50
2019-05-13T08:48:52.678Z,4.20
2019-05-13T08:51:23.110Z,2.67
2019-05-13T08:53:53.498Z,4.40
2019-05-13T08:56:23.938Z,4.87
2019-05-13T08:58:55.368Z,2.40
2019-05-13T09:01:25.812Z,4.97
2019-05-13T09:03:56.265Z,5.10
2019-05-13T09:06:26.815Z,2.83
2019-05-13T09:08:58.363Z,2.77
2019-05-13T09:11:31.496Z,3.63
2019-05-13T09:14:02.429Z,7.43
2019-05-13T09:16:33.201Z,2.83
2019-05-13T09:19:04.061Z,1.60
2019-05-13T09:21:34.770Z,3.03
2019-05-13T09:24:20.684Z,3.17
2019-05-13T09:26:37.455Z,2.20
2019-05-13T09:29:08.315Z,4.17
2019-05-13T09:31:41.386Z,6.37
2019-05-13T09:34:12.203Z,2.20
2019-05-13T09:36:42.863Z,2.33
2019-05-13T09:39:13.256Z,2.80
2019-05-13T09:41:44.635Z,5.80
2019-05-13T09:44:15.392Z,4.57
2019-05-13T09:46:45.849Z,4.63
2019-05-13T09:49:20.184Z,3.10
2019-05-13T09:51:48.436Z,6.50
2019-05-13T09:54:18.831Z,3.17
2019-05-13T09:56:51.698Z,3.90
2019-05-13T09:59:22.169Z,6.03
2019-05-13T10:01:52.753Z,3.43
2019-05-13T10:04:23.146Z,3.87
2019-05-13T10:06:53.579Z,4.33
2019-05-13T10:09:23.977Z,5.87
2019-05-13T10:11:54.406Z,2.97
2019-05-13T10:14:24.875Z,4.57
2019-05-13T10:16:55.312Z,4.60
2019-05-13T10:19:25.703Z,5.63
2019-05-13T10:21:56.485Z,4.23
2019-05-13T10:24:27.015Z,6.07
2019-05-13T10:26:57.688Z,2.87
2019-05-13T10:29:28.684Z,7.67
2019-05-13T10:32:02.158Z,4.63
2019-05-13T10:34:33.284Z,4.90
2019-05-13T10:37:04.306Z,2.13
2019-05-13T10:39:35.265Z,3.90
2019-05-13T10:42:05.768Z,1.37
2019-05-13T10:44:36.515Z,3.43
2019-05-13T10:47:08.046Z,4.67
2019-05-13T10:49:38.455Z,2.57
2019-05-13T10:52:08.976Z,4.50
2019-05-13T10:54:41.529Z,4.20
2019-05-13T10:57:13.633Z,3.90
2019-05-13T10:59:44.051Z,2.43
2019-05-13T11:02:14.656Z,4.40
2019-05-13T11:04:45.124Z,4.97
2019-05-13T11:07:15.691Z,2.40
2019-05-13T11:09:46.080Z,2.63
2019-05-13T11:12:16.502Z,3.00
2019-05-13T11:14:51.511Z,6.33
2019-05-13T11:19:51.188Z,2.77
2019-05-13T11:22:22.584Z,5.03
2019-05-13T11:24:53.087Z,3.60
2019-05-13T11:27:23.645Z,3.00
2019-05-13T11:29:54.159Z,4.30
2019-05-13T11:32:24.557Z,2.97
2019-05-13T11:34:55.957Z,2.33
2019-05-13T11:37:26.351Z,3.17
2019-05-13T11:39:56.769Z,2.23
2019-05-13T11:42:27.169Z,5.23
2019-05-13T11:44:57.600Z,1.40
2019-05-13T11:47:27.987Z,4.87
2019-05-13T11:49:58.414Z,2.47
2019-05-13T11:52:31.024Z,2.90
2019-05-13T11:55:02.932Z,1.50
2019-05-13T11:57:33.671Z,2.97
2019-05-13T12:00:07.211Z,2.93
2019-05-13T12:02:37.608Z,2.73
2019-05-13T12:05:09.650Z,12.50
2019-05-13T12:07:42.052Z,2.63
2019-05-13T12:10:13.053Z,2.50
2019-05-13T12:12:44.186Z,4.00
2019-05-13T12:15:35.582Z,3.00
2019-05-13T12:17:47.014Z,4.70
2019-05-13T12:20:17.526Z,3.67
2019-05-13T12:22:48.187Z,2.93
2019-05-13T12:25:18.629Z,3.13
2019-05-13T12:27:51.372Z,4.80
2019-05-13T12:30:22.803Z,2.43
2019-05-13T12:32:53.280Z,3.37
2019-05-13T12:35:23.992Z,4.07
2019-05-13T12:37:54.379Z,4.33
2019-05-13T12:40:24.904Z,4.27
2019-05-13T12:42:55.422Z,4.10
2019-05-13T12:45:25.933Z,3.33
2019-05-13T12:47:56.433Z,7.67
2019-05-13T12:50:28.451Z,3.73
2019-05-13T12:52:58.940Z,2.70
2019-05-13T12:55:32.820Z,2.30
2019-05-13T12:58:02.778Z,2.67
2019-05-13T13:00:33.432Z,2.47
2019-05-13T13:03:05.927Z,4.10
2019-05-13T13:05:37.447Z,2.40
2019-05-13T13:08:23.875Z,2.00
2019-05-13T13:10:42.331Z,2.23
2019-05-13T13:13:12.340Z,4.53
2019-05-13T13:15:48.659Z,3.63
2019-05-13T13:18:15.919Z,4.27
2019-05-13T13:20:46.428Z,2.80
2019-05-13T13:23:17.864Z,2.10
2019-05-13T13:25:53.111Z,3.37
2019-05-13T13:28:23.933Z,2.23
2019-05-13T13:30:53.209Z,6.70
2019-05-13T13:33:23.837Z,4.03
2019-05-13T13:35:58.939Z,5.03
2019-05-13T13:38:26.421Z,4.30
2019-05-13T13:40:56.918Z,1.80
2019-05-13T13:43:27.303Z,2.57
2019-05-13T13:46:32.591Z,4.70
2019-05-13T13:48:33.093Z,5.17
2019-05-13T13:51:04.830Z,7.13
2019-05-13T13:53:34.112Z,7.47
2019-05-13T13:56:04.560Z,8.67
2019-05-13T13:58:34.951Z,8.03
2019-05-13T14:01:12.225Z,8.00
2019-05-13T14:03:37.607Z,6.60
2019-05-13T14:06:08.420Z,5.40
2019-05-13T14:06:28.716Z,3.03
2019-05-13T14:08:41.402Z,3.23
2019-05-13T14:11:11.820Z,11.70
2019-05-13T14:13:43.488Z,7.77
2019-05-13T14:16:24.955Z,6.30
2019-05-13T14:18:46.038Z,2.77
2019-05-13T14:21:16.432Z,3.13
2019-05-13T14:23:46.862Z,2.87
2019-05-13T14:26:17.329Z,2.17
2019-05-13T14:28:47.838Z,3.27
2019-05-13T14:31:18.298Z,5.70
2019-05-13T14:33:48.740Z,3.90
2019-05-13T14:36:22.707Z,9.57
2019-05-13T14:38:52.969Z,2.13
2019-05-13T14:41:23.478Z,1.73
2019-05-13T14:43:53.912Z,2.20
2019-05-13T14:46:35.402Z,5.43
2019-05-13T14:48:56.427Z,2.70
2019-05-13T14:51:26.815Z,4.43
2019-05-13T14:53:57.255Z,3.77
2019-05-13T14:56:28.623Z,4.80
2019-05-13T14:58:59.124Z,5.00
2019-05-13T15:01:31.817Z,7.97
2019-05-13T15:04:03.021Z,5.03
2019-05-13T15:06:33.448Z,5.83
2019-05-13T15:09:05.316Z,7.77
2019-05-13T15:11:35.736Z,6.83
2019-05-13T15:14:06.553Z,5.60
2019-05-13T15:16:37.482Z,5.77
2019-05-13T15:19:08.029Z,6.17
2019-05-13T15:21:38.417Z,4.70
2019-05-13T15:24:09.066Z,11.07
2019-05-13T15:26:42.401Z,3.97
2019-05-13T15:29:12.924Z,4.30
2019-05-13T15:31:43.408Z,6.63
2019-05-13T15:34:13.908Z,6.50
2019-05-13T15:36:44.389Z,5.20
2019-05-13T15:39:15.888Z,6.80
2019-05-13T15:41:46.332Z,4.77
2019-05-13T15:44:16.861Z,9.57
2019-05-13T15:46:47.368Z,13.17
2019-05-13T15:49:17.947Z,13.03
2019-05-13T15:51:48.342Z,16.17
2019-05-13T15:54:21.921Z,10.70
2019-05-13T15:56:51.218Z,10.07
2019-05-13T15:59:21.731Z,6.90
2019-05-13T16:01:52.586Z,7.33
2019-05-13T16:04:23.161Z,6.23
2019-05-13T16:06:53.870Z,5.93
2019-05-13T16:09:24.299Z,4.70
2019-05-13T16:11:54.693Z,4.83
2019-05-13T16:14:25.189Z,3.33
2019-05-13T16:16:55.656Z,4.50
2019-05-13T16:19:26.085Z,12.30
2019-05-13T16:21:56.484Z,4.93
2019-05-13T16:24:26.921Z,6.67
2019-05-13T16:26:57.316Z,7.10
2019-05-13T16:29:28.724Z,5.57
2019-05-13T16:32:01.348Z,5.17
2019-05-13T16:34:31.879Z,4.17
2019-05-13T16:37:03.486Z,9.60
2019-05-13T16:39:33.919Z,3.60
2019-05-13T16:42:04.461Z,6.27
2019-05-13T16:44:35.169Z,7.40
2019-05-13T16:47:05.721Z,4.50
2019-05-13T16:49:36.208Z,4.90
2019-05-13T16:52:06.662Z,6.60
2019-05-13T16:54:37.244Z,5.97
2019-05-13T16:57:07.814Z,7.03
2019-05-13T16:59:38.308Z,6.80
2019-05-13T17:02:08.788Z,4.17
2019-05-13T17:04:41.316Z,5.33
2019-05-13T17:07:11.419Z,6.07
2019-05-13T17:09:42.068Z,4.87
2019-05-13T17:12:15.810Z,5.00
2019-05-13T17:14:45.804Z,3.90
2019-05-13T17:17:16.192Z,4.67
2019-05-13T17:19:46.630Z,3.73
2019-05-13T17:22:17.021Z,5.20
2019-05-13T17:24:47.458Z,3.57
2019-05-13T17:27:17.863Z,2.70
2019-05-13T17:29:48.310Z,6.10
2019-05-13T17:32:18.707Z,5.77
2019-05-13T17:34:51.397Z,6.20
2019-05-13T17:37:22.690Z,8.37
2019-05-13T17:39:53.126Z,2.70
2019-05-13T17:42:23.527Z,8.57
2019-05-13T17:44:53.959Z,4.03
2019-05-13T17:47:24.361Z,7.00
2019-05-13T17:49:54.902Z,4.20
2019-05-13T17:52:25.344Z,6.50
2019-05-13T17:54:55.786Z,4.73
2019-05-13T17:57:26.282Z,5.90
2019-05-13T17:59:56.662Z,3.97
2019-05-13T18:02:27.100Z,5.20
2019-05-13T18:04:58.467Z,3.50
2019-05-13T18:07:28.895Z,8.20
2019-05-13T18:10:01.371Z,4.23
2019-05-13T18:12:31.492Z,6.33
2019-05-13T18:15:02.453Z,3.80
2019-05-13T18:17:33.095Z,5.93
2019-05-13T18:20:03.745Z,3.67
2019-05-13T18:22:34.176Z,4.77
2019-05-13T18:25:05.525Z,6.83
2019-05-13T18:27:36.021Z,5.03
2019-05-13T18:30:11.395Z,4.97
2019-05-13T18:32:42.027Z,6.47
2019-05-13T18:35:12.543Z,4.53
2019-05-13T18:37:43.005Z,5.20
2019-05-13T18:40:13.463Z,7.10
2019-05-13T18:42:43.891Z,6.53
2019-05-13T18:45:14.344Z,7.60
2019-05-13T18:47:44.775Z,8.50
2019-05-13T18:50:15.288Z,9.27
2019-05-13T18:52:45.707Z,5.53
2019-05-13T18:55:16.199Z,12.50
2019-05-13T18:57:47.625Z,7.63
2019-05-13T19:00:21.687Z,9.47
2019-05-13T19:02:53.624Z,7.87
2019-05-13T19:05:24.047Z,10.30
2019-05-13T19:07:54.520Z,9.77
2019-05-13T19:10:24.979Z,8.63
2019-05-13T19:12:57.858Z,16.80
2019-05-13T19:15:27.602Z,7.03
2019-05-13T19:17:58.071Z,5.97
2019-05-13T19:20:28.725Z,7.17
2019-05-13T19:23:01.087Z,10.97
2019-05-13T19:25:31.545Z,7.23
2019-05-13T19:28:02.467Z,12.83
2019-05-13T19:30:32.944Z,8.93
2019-05-13T19:33:03.421Z,13.53
2019-05-13T19:35:33.801Z,13.60
2019-05-13T19:38:04.384Z,15.43
2019-05-13T19:40:34.839Z,15.03
2019-05-13T19:43:05.648Z,13.70
2019-05-13T19:45:36.175Z,12.30
2019-05-13T19:48:06.727Z,10.23
2019-05-13T19:50:37.369Z,11.03
2019-05-13T19:53:08.102Z,12.00
2019-05-13T19:55:38.558Z,10.30
2019-05-13T19:58:09.074Z,11.03
2019-05-13T20:00:39.632Z,14.00
2019-05-13T20:03:11.758Z,13.10
2019-05-13T20:05:42.302Z,16.97
2019-05-13T20:08:14.113Z,20.43
2019-05-13T20:10:44.491Z,20.73
2019-05-13T20:13:14.924Z,30.70
2019-05-13T20:15:45.307Z,37.80
2019-05-13T20:18:15.820Z,31.43
2019-05-13T20:20:46.289Z,33.00
2019-05-13T20:23:17.003Z,38.20
2019-05-13T20:25:49.026Z,42.67
2019-05-13T20:28:19.459Z,43.60
2019-05-13T20:30:51.158Z,58.97
2019-05-13T20:33:22.215Z,62.00
2019-05-13T20:35:53.188Z,54.93
2019-05-13T20:38:23.739Z,54.37
2019-05-13T20:40:54.199Z,62.00
2019-05-13T20:43:24.656Z,53.17
2019-05-13T20:45:55.049Z,46.53
2019-05-13T20:48:25.507Z,55.80
2019-05-13T20:50:55.889Z,51.97
2019-05-13T20:53:27.301Z,46.10
2019-05-13T20:55:57.688Z,45.80
2019-05-13T20:58:28.135Z,48.33
2019-05-13T21:00:58.521Z,49.23
2019-05-13T21:03:28.954Z,48.20
2019-05-13T21:05:59.343Z,43.63
2019-05-13T21:08:31.955Z,44.00
2019-05-13T21:11:02.461Z,39.23
2019-05-13T21:13:33.969Z,40.07
2019-05-13T21:16:04.457Z,39.93
2019-05-13T21:18:34.893Z,37.10
2019-05-13T21:21:05.739Z,41.80
2019-05-13T21:23:36.132Z,36.03
2019-05-13T21:26:06.573Z,36.40
2019-05-13T21:28:36.960Z,39.80
2019-05-13T21:31:07.396Z,40.67
2019-05-13T21:33:37.792Z,44.17
2019-05-13T21:36:08.286Z,40.27
2019-05-13T21:38:38.679Z,32.73
2019-05-13T21:41:11.659Z,34.53
2019-05-13T21:43:41.641Z,42.33
2019-05-13T21:46:12.204Z,36.23
2019-05-13T21:48:42.700Z,35.53
2019-05-13T21:51:13.485Z,36.30
2019-05-13T21:53:44.088Z,20.03
2019-05-13T21:56:14.521Z,26.67
2019-05-13T21:58:44.895Z,23.47
2019-05-13T22:01:16.297Z,14.73
2019-05-13T22:03:46.816Z,16.20
2019-05-13T22:06:17.238Z,14.23
2019-05-13T22:08:47.575Z,9.50
2019-05-13T22:11:18.030Z,14.20
2019-05-13T22:13:51.444Z,11.80
2019-05-13T22:16:21.666Z,10.40
2019-05-13T22:18:52.525Z,11.47
2019-05-13T22:21:23.002Z,10.63
2019-05-13T22:23:53.387Z,11.70
2019-05-13T22:26:23.809Z,10.60
2019-05-13T22:28:54.186Z,12.70
2019-05-13T22:31:24.755Z,12.13
2019-05-13T22:33:55.142Z,10.03
2019-05-13T22:36:25.577Z,12.93
2019-05-13T22:38:55.959Z,14.83
2019-05-13T22:41:26.463Z,13.00
2019-05-13T22:43:58.888Z,12.63
2019-05-13T22:46:29.050Z,13.30
2019-05-13T22:49:01.151Z,13.40
2019-05-13T22:51:32.081Z,12.87
2019-05-13T22:54:02.681Z,12.03
2019-05-13T22:56:33.093Z,13.20
2019-05-13T22:59:03.473Z,12.97
2019-05-13T23:01:33.904Z,13.10
2019-05-13T23:04:04.311Z,12.33
2019-05-13T23:06:34.728Z,14.40
2019-05-13T23:09:06.560Z,19.17
2019-05-13T23:11:36.985Z,13.67
2019-05-13T23:14:10.894Z,15.77
2019-05-13T23:16:41.980Z,15.90
2019-05-13T23:19:11.781Z,16.97
2019-05-13T23:21:42.389Z,13.83
2019-05-13T23:24:12.772Z,10.37
2019-05-13T23:26:43.193Z,12.33
2019-05-13T23:29:13.574Z,14.50
2019-05-13T23:31:43.996Z,15.07
2019-05-13T23:34:14.384Z,16.70
2019-05-13T23:36:44.802Z,14.53
2019-05-13T23:39:15.182Z,14.37
2019-05-13T23:41:45.604Z,17.27
2019-05-13T23:44:24.884Z,12.10
2019-05-13T23:46:48.104Z,15.47
2019-05-13T23:49:18.540Z,14.90
2019-05-13T23:51:52.084Z,10.07
2019-05-13T23:54:22.650Z,16.90
2019-05-13T23:56:53.076Z,10.13
2019-05-13T23:59:23.453Z,12.33
